Weather reports worldwide

Advertisment
Rodkallen, Sweden (2188): temperature & dewpoint: 22.02.2017 15:00:00 - 28.02.2017 15:00:00 (CET)Rodkallen, Sweden (2188): wind speed & gusts: 22.02.2017 15:00:00 - 28.02.2017 15:00:00 (CET)Rodkallen, Sweden (2188): wind direction: 22.02.2017 15:00:00 - 28.02.2017 15:00:00 (CET)Rodkallen, Sweden (2188): visibility: 22.02.2017 15:00:00 - 28.02.2017 15:00:00 (CET)Rodkallen, Sweden (2188): precipitation: 22.02.2017 15:00:00 - 28.02.2017 15:00:00 (CET)
Date & Time tt [°C] td [°C] ff [km/h] ff [kn] fx [km/h] fx [kn] dd vv [km] rr [mm]
28.02.2017 15:00:00 -4,3 -4,3 38 21 48 26 NE 3,5 0,0
28.02.2017 14:00:00 -3,9 -3,9 36 19 45 24 NE 18 0,0
28.02.2017 13:00:00 -3,6 -3,6 37 20 44 24 NE 25 0,0
28.02.2017 12:00:00 -3,3 -3,3 26 14 31 17 NE 40 0,1
28.02.2017 11:00:00 -3,7 -3,7 25 14 25 14 ENE 3,9 0,0
28.02.2017 10:00:00 -3,7 -3,7 18 10 21 11 ENE 4,1 0,0
28.02.2017 09:00:00 -3,7 -3,7 14 8 18 10 E 1,9 0,0
28.02.2017 08:00:00 -4,0 -4,0 13 7 17 9 E 23 0,0
28.02.2017 07:00:00 -4,0 -4,0 13 7 17 9 E 8 0,0
28.02.2017 06:00:00 -4,1 -4,1 13 7 16 8 E 24 0,0
28.02.2017 05:00:00 -4,3 -4,3 11 6 14 8 E 37 0,0
28.02.2017 04:00:00 -4,2 -4,2 11 6 14 8 E 5 0,0
28.02.2017 03:00:00 -4,2 -4,2 13 7 21 12 SE 4,1 0,0
28.02.2017 02:00:00 -4,7 -4,7 18 10 22 12 SE 3,7 0,0
28.02.2017 01:00:00 -5,1 -5,1 22 12 34 18 SE 6 0,0
28.02.2017 00:00:00 -5,4 -5,4 29 16 35 19 ESE 6 0,0
27.02.2017 23:00:00 -5,5 -5,5 29 16 39 21 SE - 0,0
27.02.2017 22:00:00 -5,7 -5,7 29 16 37 20 ESE 3,1 0,0
27.02.2017 21:00:00 -5,8 -5,8 30 16 36 20 ESE 2,5 0,0
27.02.2017 20:00:00 -5,7 -6,0 26 14 35 19 SE 2,0 0,0
27.02.2017 19:00:00 -5,8 -8,1 29 16 37 20 SE 23 0,0
27.02.2017 18:00:00 -6,2 -9,1 29 15 37 20 SE 50 0,0
27.02.2017 17:00:00 -5,9 -7,2 29 15 33 18 ESE 50 0,0
27.02.2017 16:00:00 -5,6 -6,1 25 14 29 16 SE 40 0,0
27.02.2017 15:00:00 -5,5 -7,0 22 12 26 14 SE 50 0,0
27.02.2017 14:00:00 -5,5 -7,6 18 10 24 13 SE 50 0,0
27.02.2017 13:00:00 -5,6 -9,3 15 8 19 10 S 50 0,0
27.02.2017 12:00:00 -5,9 -9,2 13 7 17 9 S 49 0,0
27.02.2017 11:00:00 -9,2 -10,9 5 3 8 4 NNE 35 0,0
27.02.2017 10:00:00 -11,6 -13,8 6 3 10 5 NNE 18 0,0
27.02.2017 09:00:00 -13,3 -15,3 9 5 12 6 N 49 0,0
27.02.2017 08:00:00 -13,8 -15,5 9 5 13 7 N 50 0,0
27.02.2017 07:00:00 -13,4 -14,4 7 4 11 6 NNW 50 0,0
27.02.2017 06:00:00 -13,5 -14,6 6 3 10 6 N 50 0,0
27.02.2017 05:00:00 -13,6 -14,9 10 6 16 9 NW 50 0,0
27.02.2017 04:00:00 -14,7 -16,3 8 4 16 9 NW 50 0,0
27.02.2017 03:00:00 -14,0 -14,7 9 5 16 9 NNW 50 0,0
27.02.2017 02:00:00 -14,3 -15,6 9 5 15 8 NW 50 0,0
27.02.2017 01:00:00 -13,6 -15,3 14 7 21 12 NW 50 0,0
27.02.2017 00:00:00 -12,4 -13,8 18 10 22 12 NW 50 0,0
26.02.2017 23:00:00 -11,8 -13,0 12 7 16 9 NW 50 0,0
26.02.2017 22:00:00 -11,3 -13,1 15 8 21 11 NW 50 0,0
26.02.2017 21:00:00 -11,7 -14,4 16 8 20 11 NW 50 0,0
26.02.2017 20:00:00 -10,2 -13,6 15 8 20 11 NW 50 0,0
26.02.2017 19:00:00 -10,2 -14,2 13 7 21 11 NW 50 0,0
26.02.2017 18:00:00 -9,7 -14,0 16 9 21 11 NW 50 0,0
26.02.2017 17:00:00 -10,0 -14,3 15 8 20 11 NW 50 0,0
26.02.2017 16:00:00 -9,3 -14,1 15 8 21 11 NNW 50 0,0
26.02.2017 15:00:00 -9,8 -14,2 14 8 23 12 NNW 47 0,0
26.02.2017 14:00:00 -10,1 -14,0 16 8 29 15 NNW 50 0,0
26.02.2017 13:00:00 -10,9 -14,6 19 11 29 15 NNW 47 0,0
26.02.2017 12:00:00 -11,6 -14,6 18 10 29 16 NNW 42 0,0
26.02.2017 11:00:00 -12,0 -14,6 22 12 39 21 N 42 0,0
26.02.2017 10:00:00 -12,1 -14,1 31 17 42 23 N 15 0,0
26.02.2017 09:00:00 -12,3 -14,3 32 17 42 23 N 12 0,0
26.02.2017 08:00:00 -12,4 -14,7 23 12 31 17 N 50 0,0
26.02.2017 07:00:00 -12,0 -14,0 18 10 26 14 N 50 0,0
26.02.2017 06:00:00 -10,3 -12,9 24 13 34 19 N 50 0,0
26.02.2017 05:00:00 -7,8 -9,8 31 17 38 20 N 44 0,0
26.02.2017 04:00:00 -6,3 -9,3 23 12 31 17 NNW 50 0,0
26.02.2017 03:00:00 -8,3 -11,1 19 10 28 15 NW 50 0,0
26.02.2017 02:00:00 -6,6 -10,0 22 12 32 17 NW 50 0,0
26.02.2017 01:00:00 -6,0 -9,1 26 14 33 18 WNW 50 0,0
26.02.2017 00:00:00 -5,3 -8,2 27 15 32 18 W 50 0,0
25.02.2017 23:00:00 -5,2 -8,6 26 14 32 17 WNW 50 0,0
25.02.2017 22:00:00 -5,2 -8,3 24 13 29 16 WNW 50 0,0
25.02.2017 21:00:00 -5,0 -8,2 22 12 32 17 WNW 50 0,0
25.02.2017 20:00:00 -4,3 -8,0 27 15 34 19 WNW 50 0,0
25.02.2017 19:00:00 -4,1 -7,7 28 15 36 19 WNW 50 0,0
25.02.2017 18:00:00 -3,5 -6,9 30 16 35 19 W 50 0,0
25.02.2017 17:00:00 -3,3 -7,3 26 14 32 17 W 50 0,0
25.02.2017 16:00:00 -3,0 -8,1 27 15 33 18 WNW 50 0,0
25.02.2017 15:00:00 -3,5 -8,0 27 15 33 18 W 50 0,0
25.02.2017 14:00:00 -3,6 -8,0 26 14 32 17 WNW 50 0,0
25.02.2017 13:00:00 -4,2 -8,5 19 11 27 15 WNW 50 0,0
25.02.2017 12:00:00 -5,3 -9,5 20 11 30 16 NW 50 0,0
25.02.2017 11:00:00 -5,5 -9,7 21 11 34 18 WNW 43 0,0
25.02.2017 10:00:00 -6,5 -10,3 22 12 30 16 WNW 50 0,0
25.02.2017 09:00:00 -7,3 -10,8 27 15 38 21 WNW 50 0,0
25.02.2017 08:00:00 -7,7 -10,7 31 17 40 22 WNW 31 0,0
25.02.2017 07:00:00 -7,9 -10,9 30 16 41 22 W 50 0,0
25.02.2017 06:00:00 -7,6 -10,5 33 18 40 22 WNW 22 0,0
25.02.2017 05:00:00 -7,2 -10,5 31 17 43 23 WNW 32 0,0
25.02.2017 04:00:00 -6,9 -10,1 34 19 46 25 WNW 12 0,0
25.02.2017 03:00:00 -6,4 -9,6 33 18 45 25 WNW 11 0,0
25.02.2017 02:00:00 -6,3 -9,8 31 17 40 22 WNW 15 0,0
25.02.2017 01:00:00 -6,4 -8,5 27 15 34 18 WNW 50 0,0
25.02.2017 00:00:00 -9,2 -10,4 14 8 27 14 NW 50 0,0
24.02.2017 23:00:00 -8,2 -9,7 20 11 31 17 NW 40 0,0
24.02.2017 22:00:00 -8,1 -8,6 22 12 32 17 NW 3,8 0,0
24.02.2017 21:00:00 -8,0 -9,2 25 13 36 19 NNW 5 0,0
24.02.2017 20:00:00 -8,2 -8,8 23 12 38 21 NNW 2,0 0,1
24.02.2017 19:00:00 -8,3 -9,9 24 13 36 20 NNW 8 0,0
24.02.2017 18:00:00 -8,5 -9,1 22 12 37 20 NNW 1,9 0,1
24.02.2017 17:00:00 -8,7 -9,7 23 12 34 18 NNW 3,8 0,0
24.02.2017 16:00:00 -8,7 -10,3 23 13 37 20 NNW 7 0,0
24.02.2017 15:00:00 -8,7 -10,2 23 13 39 21 NNW 2,9 0,0
24.02.2017 14:00:00 -8,8 -10,4 24 13 41 22 NNW 2,8 0,0
24.02.2017 13:00:00 -8,9 -10,8 24 13 41 22 NNW 4,7 0,0
24.02.2017 12:00:00 -9,2 -11,3 27 14 42 23 NNW 8 0,0
24.02.2017 11:00:00 -9,7 -11,9 30 16 43 23 NNW - 0,0
24.02.2017 10:00:00 -10,2 -12,4 27 15 41 22 NNW 14 0,0
24.02.2017 09:00:00 -10,5 -12,4 26 14 40 21 NNW 12 0,0
24.02.2017 08:00:00 -10,4 -12,2 29 16 44 24 NNW - 0,0
24.02.2017 07:00:00 -10,3 -11,8 30 16 45 24 NNW 3,7 0,1
24.02.2017 06:00:00 -10,2 -11,6 31 17 45 24 NNW 2,6 0,0
24.02.2017 05:00:00 -10,4 -11,7 30 16 46 25 NNW 3,6 0,0
24.02.2017 04:00:00 -10,4 -11,7 32 17 48 26 NNW 2,5 0,0
24.02.2017 03:00:00 -10,4 -11,6 31 17 46 25 NNW 1,7 0,1
24.02.2017 02:00:00 -10,4 -11,9 32 17 45 24 NNW 3,9 0,1
24.02.2017 01:00:00 -10,3 -11,5 31 17 45 24 NNW 2,0 0,1
24.02.2017 00:00:00 -10,2 -11,5 32 17 50 27 NNW 1,8 0,0
23.02.2017 23:00:00 -10,1 -11,2 34 18 49 26 NNW 1,5 0,0
23.02.2017 22:00:00 -9,8 -11,0 31 17 48 26 NNW 1,8 0,0
23.02.2017 21:00:00 -9,6 -10,8 34 18 47 25 NNW 2,5 0,0
23.02.2017 20:00:00 -9,3 -10,4 34 18 52 28 NNW 2,1 0,1
23.02.2017 19:00:00 -9,1 -10,4 33 18 50 27 NNW 3,2 0,0
23.02.2017 18:00:00 -9,0 -10,0 31 17 42 23 NNW - 0,0
23.02.2017 17:00:00 -8,4 -9,1 29 16 45 25 N 3,3 0,1
23.02.2017 16:00:00 -8,0 -8,5 31 17 42 23 N 2,0 0,1
23.02.2017 15:00:00 -8,0 -8,5 27 15 36 20 N 2,4 0,1
23.02.2017 14:00:00 -7,8 -8,2 24 13 36 20 N 1,1 0,2
23.02.2017 13:00:00 -7,4 -8,7 29 15 36 19 N 6 0,0
23.02.2017 12:00:00 -7,6 -9,1 30 16 39 21 N 9 0,1
23.02.2017 11:00:00 -7,8 -8,8 36 19 42 23 NNE 4,7 0,0
23.02.2017 10:00:00 -7,7 -8,2 32 17 37 20 NNE 4,3 0,3
23.02.2017 09:00:00 -7,5 -7,8 29 15 33 18 NE 4,7 0,2
23.02.2017 08:00:00 -7,3 -7,5 28 15 35 19 ENE 2,0 0,4
23.02.2017 07:00:00 -6,9 -6,9 29 16 38 20 E 1,5 0,3
23.02.2017 06:00:00 -6,5 -6,5 28 15 36 19 E 1,2 0,4
23.02.2017 05:00:00 -6,0 -6,4 28 15 38 21 E 7 0,1
23.02.2017 04:00:00 -6,2 -6,9 30 16 40 22 E 8 0,1
23.02.2017 03:00:00 -6,3 -6,5 34 18 45 25 E 1,7 0,3
23.02.2017 02:00:00 -6,6 -6,6 37 20 48 26 E 1,3 0,1
23.02.2017 01:00:00 -6,4 -6,8 37 20 47 25 E 11 0,0
23.02.2017 00:00:00 -6,0 -6,3 37 20 48 26 E - 0,0
22.02.2017 23:00:00 -5,8 -6,2 41 22 49 27 ESE - 0,0
22.02.2017 22:00:00 -5,5 -5,5 40 22 51 27 ESE 1,6 0,1
22.02.2017 21:00:00 -4,8 -4,8 34 18 48 26 SE 1,2 0,0
22.02.2017 20:00:00 -4,7 -4,9 41 22 51 28 SE 1,9 0,0
22.02.2017 19:00:00 -3,9 -6,0 41 22 51 28 SE 7 0,0
22.02.2017 18:00:00 -3,5 -5,8 42 23 54 29 SE 50 0,0
22.02.2017 17:00:00 -3,4 -5,1 40 22 52 28 SE 46 0,0
22.02.2017 16:00:00 -3,2 -4,7 43 23 54 29 SE 50 0,0
22.02.2017 15:00:00 -3,2 -4,2 43 23 55 30 SE 46 0,0

tt = temperature
td = dewpoint
ff = wind speed
fx = gusts
dd = wind direction
vv = visibility
rr = precipitation

Next stations